sensor_id;sensor_type;location;lat;lon;timestamp;pressure;altitude;pressure_sealevel;temperature;humidity
75594;BME280;64176;49.156;7.810;2023-05-10T00:02:27;98583.69;;;12.78;95.12
75594;BME280;64176;49.156;7.810;2023-05-10T00:05:11;98576.78;;;12.75;94.89
75594;BME280;64176;49.156;7.810;2023-05-10T00:07:55;98585.44;;;12.76;94.99
75594;BME280;64176;49.156;7.810;2023-05-10T00:10:39;98588.06;;;12.71;95.54
75594;BME280;64176;49.156;7.810;2023-05-10T00:13:24;98577.78;;;12.68;94.96
75594;BME280;64176;49.156;7.810;2023-05-10T00:16:08;98581.31;;;12.61;95.21
75594;BME280;64176;49.156;7.810;2023-05-10T00:18:52;98584.63;;;12.71;95.99
75594;BME280;64176;49.156;7.810;2023-05-10T00:21:38;98584.69;;;12.68;96.29
75594;BME280;64176;49.156;7.810;2023-05-10T00:24:22;98585.31;;;12.85;95.80
75594;BME280;64176;49.156;7.810;2023-05-10T00:27:06;98584.84;;;12.57;95.94
75594;BME280;64176;49.156;7.810;2023-05-10T00:29:51;98580.41;;;12.65;96.19
75594;BME280;64176;49.156;7.810;2023-05-10T00:32:35;98585.66;;;12.59;96.51
75594;BME280;64176;49.156;7.810;2023-05-10T00:35:19;98587.22;;;12.71;95.88
75594;BME280;64176;49.156;7.810;2023-05-10T00:38:04;98584.72;;;12.65;96.11
75594;BME280;64176;49.156;7.810;2023-05-10T00:40:47;98578.59;;;12.70;95.21
75594;BME280;64176;49.156;7.810;2023-05-10T00:43:40;98581.22;;;12.69;95.18
75594;BME280;64176;49.156;7.810;2023-05-10T00:46:24;98581.09;;;12.78;95.90
75594;BME280;64176;49.156;7.810;2023-05-10T00:49:10;98569.78;;;12.82;95.02
75594;BME280;64176;49.156;7.810;2023-05-10T00:51:57;98582.66;;;12.90;94.99
75594;BME280;64176;49.156;7.810;2023-05-10T00:54:43;98562.16;;;12.71;95.34
75594;BME280;64176;49.156;7.810;2023-05-10T00:57:28;98570.78;;;12.73;95.23
75594;BME280;64176;49.156;7.810;2023-05-10T01:00:13;98569.91;;;12.73;95.52
75594;BME280;64176;49.156;7.810;2023-05-10T01:03:02;98563.94;;;12.69;94.57
75594;BME280;64176;49.156;7.810;2023-05-10T01:05:46;98577.59;;;12.81;95.27
75594;BME280;64176;49.156;7.810;2023-05-10T01:08:30;98573.19;;;12.86;95.33
75594;BME280;64176;49.156;7.810;2023-05-10T01:11:15;98570.53;;;12.92;95.36
75594;BME280;64176;49.156;7.810;2023-05-10T01:13:59;98575.59;;;12.98;95.13
75594;BME280;64176;49.156;7.810;2023-05-10T01:16:44;98580.81;;;12.96;95.09
75594;BME280;64176;49.156;7.810;2023-05-10T01:19:31;98577.44;;;12.91;95.38
75594;BME280;64176;49.156;7.810;2023-05-10T01:34:47;98574.34;;;12.65;97.57
75594;BME280;64176;49.156;7.810;2023-05-10T01:40:52;98580.19;;;12.81;96.80
75594;BME280;64176;49.156;7.810;2023-05-10T01:43:48;98589.66;;;12.82;96.15
75594;BME280;64176;49.156;7.810;2023-05-10T01:46:41;98590.59;;;12.79;96.42
75594;BME280;64176;49.156;7.810;2023-05-10T01:49:34;98592.53;;;12.62;96.15
75594;BME280;64176;49.156;7.810;2023-05-10T01:52:26;98581.56;;;12.43;96.69
75594;BME280;64176;49.156;7.810;2023-05-10T01:55:14;98593.50;;;12.55;97.30
75594;BME280;64176;49.156;7.810;2023-05-10T01:58:04;98594.97;;;12.74;95.95
75594;BME280;64176;49.156;7.810;2023-05-10T02:00:52;98591.69;;;12.60;95.54
75594;BME280;64176;49.156;7.810;2023-05-10T02:03:38;98602.78;;;12.71;95.90
75594;BME280;64176;49.156;7.810;2023-05-10T02:06:24;98600.13;;;12.77;96.04
75594;BME280;64176;49.156;7.810;2023-05-10T02:09:11;98599.31;;;12.72;95.51
75594;BME280;64176;49.156;7.810;2023-05-10T02:11:58;98588.22;;;12.61;95.92
75594;BME280;64176;49.156;7.810;2023-05-10T02:14:44;98596.06;;;12.58;96.20
75594;BME280;64176;49.156;7.810;2023-05-10T02:17:30;98597.81;;;12.56;96.39
75594;BME280;64176;49.156;7.810;2023-05-10T02:20:16;98609.97;;;12.51;97.09
75594;BME280;64176;49.156;7.810;2023-05-10T02:23:07;98608.97;;;12.59;96.81
75594;BME280;64176;49.156;7.810;2023-05-10T02:25:54;98604.72;;;12.57;96.13
75594;BME280;64176;49.156;7.810;2023-05-10T02:28:40;98617.59;;;12.61;95.48
75594;BME280;64176;49.156;7.810;2023-05-10T02:31:24;98622.16;;;12.44;97.33
75594;BME280;64176;49.156;7.810;2023-05-10T02:34:10;98615.13;;;12.54;96.78
75594;BME280;64176;49.156;7.810;2023-05-10T02:36:55;98622.03;;;12.52;97.31
75594;BME280;64176;49.156;7.810;2023-05-10T02:39:41;98622.16;;;12.44;97.84
75594;BME280;64176;49.156;7.810;2023-05-10T02:42:29;98626.25;;;12.60;97.23
75594;BME280;64176;49.156;7.810;2023-05-10T02:45:19;98624.53;;;12.59;96.50
75594;BME280;64176;49.156;7.810;2023-05-10T02:48:04;98615.09;;;12.57;96.84
75594;BME280;64176;49.156;7.810;2023-05-10T02:50:50;98623.06;;;12.40;96.50
75594;BME280;64176;49.156;7.810;2023-05-10T02:53:38;98625.66;;;12.38;97.38
75594;BME280;64176;49.156;7.810;2023-05-10T02:56:29;98628.97;;;12.50;97.73
75594;BME280;64176;49.156;7.810;2023-05-10T02:59:15;98640.16;;;12.56;96.82
75594;BME280;64176;49.156;7.810;2023-05-10T03:02:00;98611.69;;;12.50;96.39
75594;BME280;64176;49.156;7.810;2023-05-10T03:04:47;98625.47;;;12.54;96.11
75594;BME280;64176;49.156;7.810;2023-05-10T03:07:32;98627.19;;;12.55;96.54
75594;BME280;64176;49.156;7.810;2023-05-10T03:10:17;98627.22;;;12.53;96.70
75594;BME280;64176;49.156;7.810;2023-05-10T03:13:18;98635.97;;;12.45;96.34
75594;BME280;64176;49.156;7.810;2023-05-10T03:16:08;98629.81;;;12.53;95.78
75594;BME280;64176;49.156;7.810;2023-05-10T03:19:06;98633.16;;;12.61;95.33
75594;BME280;64176;49.156;7.810;2023-05-10T03:21:52;98630.66;;;12.54;95.59
75594;BME280;64176;49.156;7.810;2023-05-10T03:24:39;98639.22;;;12.60;95.53
75594;BME280;64176;49.156;7.810;2023-05-10T03:27:26;98630.56;;;12.60;95.66
75594;BME280;64176;49.156;7.810;2023-05-10T03:30:15;98636.59;;;12.62;96.24
75594;BME280;64176;49.156;7.810;2023-05-10T03:33:05;98630.56;;;12.60;95.56
75594;BME280;64176;49.156;7.810;2023-05-10T03:35:56;98647.94;;;12.53;96.53
75594;BME280;64176;49.156;7.810;2023-05-10T03:38:40;98653.09;;;12.56;95.54
75594;BME280;64176;49.156;7.810;2023-05-10T03:41:25;98652.22;;;12.57;96.14
75594;BME280;64176;49.156;7.810;2023-05-10T03:44:09;98648.94;;;12.45;97.01
75594;BME280;64176;49.156;7.810;2023-05-10T03:46:55;98645.50;;;12.41;98.17
75594;BME280;64176;49.156;7.810;2023-05-10T03:49:41;98653.03;;;12.62;97.48
75594;BME280;64176;49.156;7.810;2023-05-10T03:52:25;98655.69;;;12.56;96.85
75594;BME280;64176;49.156;7.810;2023-05-10T03:55:09;98652.28;;;12.53;95.98
75594;BME280;64176;49.156;7.810;2023-05-10T03:57:53;98639.34;;;12.48;96.36
75594;BME280;64176;49.156;7.810;2023-05-10T04:00:39;98652.31;;;12.48;95.58
75594;BME280;64176;49.156;7.810;2023-05-10T04:03:32;98657.59;;;12.42;96.63
75594;BME280;64176;49.156;7.810;2023-05-10T04:06:16;98661.94;;;12.38;96.44
75594;BME280;64176;49.156;7.810;2023-05-10T04:09:03;98656.59;;;12.52;95.53
75594;BME280;64176;49.156;7.810;2023-05-10T04:11:48;98657.44;;;12.54;95.55
75594;BME280;64176;49.156;7.810;2023-05-10T04:14:32;98661.81;;;12.51;95.62
75594;BME280;64176;49.156;7.810;2023-05-10T04:17:15;98663.59;;;12.47;95.53
75594;BME280;64176;49.156;7.810;2023-05-10T04:19:59;98655.91;;;12.38;95.77
75594;BME280;64176;49.156;7.810;2023-05-10T04:22:43;98668.84;;;12.38;96.92
75594;BME280;64176;49.156;7.810;2023-05-10T04:25:27;98670.59;;;12.37;96.71
75594;BME280;64176;49.156;7.810;2023-05-10T04:28:11;98669.66;;;12.45;95.52
75594;BME280;64176;49.156;7.810;2023-05-10T04:31:09;98670.44;;;12.50;95.81
75594;BME280;64176;49.156;7.810;2023-05-10T04:33:56;98669.66;;;12.45;94.81
75594;BME280;64176;49.156;7.810;2023-05-10T04:36:41;98668.81;;;12.41;95.01
75594;BME280;64176;49.156;7.810;2023-05-10T04:39:25;98668.78;;;12.47;95.10
75594;BME280;64176;49.156;7.810;2023-05-10T04:42:09;98673.16;;;12.40;95.42
75594;BME280;64176;49.156;7.810;2023-05-10T04:44:55;98675.75;;;12.40;95.64
75594;BME280;64176;49.156;7.810;2023-05-10T04:47:40;98675.63;;;12.51;95.98
75594;BME280;64176;49.156;7.810;2023-05-10T04:50:26;98674.94;;;12.37;95.45
75594;BME280;64176;49.156;7.810;2023-05-10T04:53:10;98687.81;;;12.43;95.01
75594;BME280;64176;49.156;7.810;2023-05-10T04:55:54;98679.19;;;12.41;94.98
75594;BME280;64176;49.156;7.810;2023-05-10T04:58:38;98678.34;;;12.37;95.58
75594;BME280;64176;49.156;7.810;2023-05-10T05:01:23;98688.66;;;12.44;95.06
75594;BME280;64176;49.156;7.810;2023-05-10T05:04:07;98681.88;;;12.35;95.20
75594;BME280;64176;49.156;7.810;2023-05-10T05:06:51;98678.41;;;12.36;95.52
75594;BME280;64176;49.156;7.810;2023-05-10T05:09:40;98675.78;;;12.37;95.64
75594;BME280;64176;49.156;7.810;2023-05-10T05:12:24;98679.16;;;12.47;95.35
75594;BME280;64176;49.156;7.810;2023-05-10T05:15:08;98669.69;;;12.40;94.09
75594;BME280;64176;49.156;7.810;2023-05-10T05:17:53;98684.41;;;12.38;94.47
75594;BME280;64176;49.156;7.810;2023-05-10T05:20:37;98683.38;;;12.51;94.26
75594;BME280;64176;49.156;7.810;2023-05-10T05:23:21;98680.03;;;12.45;94.62
75594;BME280;64176;49.156;7.810;2023-05-10T05:26:08;98681.53;;;12.62;93.92
75594;BME280;64176;49.156;7.810;2023-05-10T05:28:57;98684.78;;;12.80;93.26
75594;BME280;64176;49.156;7.810;2023-05-10T05:31:41;98687.44;;;12.75;92.77
75594;BME280;64176;49.156;7.810;2023-05-10T05:34:25;98692.50;;;12.83;92.87
75594;BME280;64176;49.156;7.810;2023-05-10T05:37:13;98697.09;;;12.62;93.34
75594;BME280;64176;49.156;7.810;2023-05-10T05:39:57;98704.75;;;12.71;93.47
75594;BME280;64176;49.156;7.810;2023-05-10T05:42:41;98715.09;;;12.73;93.68
75594;BME280;64176;49.156;7.810;2023-05-10T05:45:25;98714.31;;;12.69;94.33
75594;BME280;64176;49.156;7.810;2023-05-10T05:48:09;98711.78;;;12.62;94.18
75594;BME280;64176;49.156;7.810;2023-05-10T05:50:57;98710.78;;;12.72;93.90
75594;BME280;64176;49.156;7.810;2023-05-10T05:53:41;98714.34;;;12.65;94.87
75594;BME280;64176;49.156;7.810;2023-05-10T05:56:25;98715.00;;;12.82;94.42
75594;BME280;64176;49.156;7.810;2023-05-10T05:59:09;98728.03;;;12.76;93.48
75594;BME280;64176;49.156;7.810;2023-05-10T06:01:53;98724.56;;;12.77;93.87
75594;BME280;64176;49.156;7.810;2023-05-10T06:04:37;98716.78;;;12.79;93.00
75594;BME280;64176;49.156;7.810;2023-05-10T06:07:21;98725.44;;;12.79;93.53
75594;BME280;64176;49.156;7.810;2023-05-10T06:10:05;98735.88;;;12.71;94.04
75594;BME280;64176;49.156;7.810;2023-05-10T06:12:50;98736.66;;;12.80;93.67
75594;BME280;64176;49.156;7.810;2023-05-10T06:15:34;98739.31;;;12.73;93.25
75594;BME280;64176;49.156;7.810;2023-05-10T06:18:18;98747.94;;;12.75;92.90
75594;BME280;64176;49.156;7.810;2023-05-10T06:21:02;98749.66;;;12.76;92.57
75594;BME280;64176;49.156;7.810;2023-05-10T06:23:48;98748.78;;;12.77;91.12
75594;BME280;64176;49.156;7.810;2023-05-10T06:26:33;98743.59;;;12.77;91.27
75594;BME280;64176;49.156;7.810;2023-05-10T06:29:17;98750.25;;;12.97;91.18
75594;BME280;64176;49.156;7.810;2023-05-10T06:32:01;98746.84;;;12.93;90.69
75594;BME280;64176;49.156;7.810;2023-05-10T06:34:47;98751.00;;;13.06;89.73
75594;BME280;64176;49.156;7.810;2023-05-10T06:37:31;98750.97;;;13.09;90.09
75594;BME280;64176;49.156;7.810;2023-05-10T06:40:15;98756.16;;;13.14;90.13
75594;BME280;64176;49.156;7.810;2023-05-10T06:43:00;98756.88;;;13.24;89.54
75594;BME280;64176;49.156;7.810;2023-05-10T06:45:44;98754.41;;;13.11;90.34
75594;BME280;64176;49.156;7.810;2023-05-10T06:48:28;98750.22;;;13.00;88.63
75594;BME280;64176;49.156;7.810;2023-05-10T06:51:12;98760.63;;;12.97;90.14
75594;BME280;64176;49.156;7.810;2023-05-10T06:53:55;98758.88;;;13.02;88.02
75594;BME280;64176;49.156;7.810;2023-05-10T06:56:39;98761.47;;;12.99;87.98
75594;BME280;64176;49.156;7.810;2023-05-10T06:59:23;98761.47;;;13.02;87.04
75594;BME280;64176;49.156;7.810;2023-05-10T07:02:07;98762.31;;;13.02;86.31
75594;BME280;64176;49.156;7.810;2023-05-10T07:04:51;98763.09;;;13.07;86.29
75594;BME280;64176;49.156;7.810;2023-05-10T07:07:36;98768.16;;;13.20;85.85
75594;BME280;64176;49.156;7.810;2023-05-10T07:10:19;98779.25;;;13.34;85.89
75594;BME280;64176;49.156;7.810;2023-05-10T07:13:04;98771.63;;;13.22;86.55
75594;BME280;64176;49.156;7.810;2023-05-10T07:15:47;98783.09;;;12.99;86.31
75594;BME280;64176;49.156;7.810;2023-05-10T07:18:34;98782.94;;;13.13;86.93
75594;BME280;64176;49.156;7.810;2023-05-10T07:21:18;98779.44;;;13.16;87.39
75594;BME280;64176;49.156;7.810;2023-05-10T07:24:02;98782.97;;;13.10;87.43
75594;BME280;64176;49.156;7.810;2023-05-10T07:26:46;98775.22;;;13.05;88.11
75594;BME280;64176;49.156;7.810;2023-05-10T07:29:33;98776.09;;;13.06;87.91
75594;BME280;64176;49.156;7.810;2023-05-10T07:32:20;98788.09;;;13.18;86.79
75594;BME280;64176;49.156;7.810;2023-05-10T07:35:04;98791.72;;;13.03;87.53
75594;BME280;64176;49.156;7.810;2023-05-10T07:37:49;98782.25;;;12.96;86.56
75594;BME280;64176;49.156;7.810;2023-05-10T07:40:33;98783.94;;;13.01;86.64
75594;BME280;64176;49.156;7.810;2023-05-10T07:43:17;98787.06;;;13.29;85.63
75594;BME280;64176;49.156;7.810;2023-05-10T07:46:01;98786.88;;;13.46;84.92
75594;BME280;64176;49.156;7.810;2023-05-10T07:48:45;98788.75;;;13.33;84.16
75594;BME280;64176;49.156;7.810;2023-05-10T07:51:29;98787.19;;;13.22;85.05
75594;BME280;64176;49.156;7.810;2023-05-10T07:54:18;98781.91;;;13.28;85.50
75594;BME280;64176;49.156;7.810;2023-05-10T07:57:07;98786.47;;;13.06;85.57
75594;BME280;64176;49.156;7.810;2023-05-10T07:59:52;98789.06;;;13.06;86.47
75594;BME280;64176;49.156;7.810;2023-05-10T08:02:38;98802.78;;;13.17;85.95
75594;BME280;64176;49.156;7.810;2023-05-10T08:05:23;98799.50;;;13.03;84.72
75594;BME280;64176;49.156;7.810;2023-05-10T08:08:09;98800.28;;;13.09;86.19
75594;BME280;64176;49.156;7.810;2023-05-10T08:10:53;98801.00;;;13.22;85.72
75594;BME280;64176;49.156;7.810;2023-05-10T08:13:37;98804.53;;;13.15;85.31
75594;BME280;64176;49.156;7.810;2023-05-10T08:16:21;98800.78;;;13.37;85.26
75594;BME280;64176;49.156;7.810;2023-05-10T08:19:07;98810.13;;;13.54;85.31
75594;BME280;64176;49.156;7.810;2023-05-10T08:21:51;98817.44;;;13.24;85.11
75594;BME280;64176;49.156;7.810;2023-05-10T08:24:37;98814.59;;;13.42;84.35
75594;BME280;64176;49.156;7.810;2023-05-10T08:27:22;98812.56;;;13.63;84.92
75594;BME280;64176;49.156;7.810;2023-05-10T08:30:06;98811.00;;;13.53;83.40
75594;BME280;64176;49.156;7.810;2023-05-10T08:32:50;98819.53;;;13.59;82.81
75594;BME280;64176;49.156;7.810;2023-05-10T08:35:34;98814.31;;;13.62;82.82
75594;BME280;64176;49.156;7.810;2023-05-10T08:38:18;98818.06;;;13.40;83.19
75594;BME280;64176;49.156;7.810;2023-05-10T08:41:02;98825.66;;;13.57;83.12
75594;BME280;64176;49.156;7.810;2023-05-10T08:43:50;98818.16;;;13.34;83.65
75594;BME280;64176;49.156;7.810;2023-05-10T08:46:37;98825.75;;;13.49;83.06
75594;BME280;64176;49.156;7.810;2023-05-10T08:49:30;98827.16;;;13.73;83.94
75594;BME280;64176;49.156;7.810;2023-05-10T08:52:16;98841.88;;;13.72;83.20
75594;BME280;64176;49.156;7.810;2023-05-10T08:55:01;98840.84;;;13.82;83.86
75594;BME280;64176;49.156;7.810;2023-05-10T08:57:46;98835.31;;;14.05;83.15
75594;BME280;64176;49.156;7.810;2023-05-10T09:00:30;98829.69;;;13.79;79.95
75594;BME280;64176;49.156;7.810;2023-05-10T09:03:15;98842.25;;;14.05;80.69
75594;BME280;64176;49.156;7.810;2023-05-10T09:06:01;98838.56;;;13.60;80.82
75594;BME280;64176;49.156;7.810;2023-05-10T09:08:45;98848.25;;;13.48;81.19
75594;BME280;64176;49.156;7.810;2023-05-10T09:11:30;98842.31;;;13.39;81.98
75594;BME280;64176;49.156;7.810;2023-05-10T09:14:15;98851.03;;;13.35;81.08
75594;BME280;64176;49.156;7.810;2023-05-10T09:16:59;98864.00;;;13.35;81.00
75594;BME280;64176;49.156;7.810;2023-05-10T09:19:45;98878.88;;;13.21;80.72
75594;BME280;64176;49.156;7.810;2023-05-10T09:22:35;98863.38;;;13.13;82.58
75594;BME280;64176;49.156;7.810;2023-05-10T09:25:19;98866.72;;;13.24;83.28
75594;BME280;64176;49.156;7.810;2023-05-10T09:28:06;98868.47;;;13.24;82.57
75594;BME280;64176;49.156;7.810;2023-05-10T09:30:53;98861.47;;;13.29;82.05
75594;BME280;64176;49.156;7.810;2023-05-10T09:33:46;98865.47;;;13.56;80.49
75594;BME280;64176;49.156;7.810;2023-05-10T09:36:34;98861.22;;;13.48;80.08
75594;BME280;64176;49.156;7.810;2023-05-10T09:39:18;98853.78;;;13.87;79.44
75594;BME280;64176;49.156;7.810;2023-05-10T09:42:06;98847.69;;;13.91;77.80
75594;BME280;64176;49.156;7.810;2023-05-10T09:44:50;98857.84;;;14.06;76.94
75594;BME280;64176;49.156;7.810;2023-05-10T09:47:35;98859.31;;;14.24;76.01
75594;BME280;64176;49.156;7.810;2023-05-10T09:50:24;98860.19;;;14.23;77.31
75594;BME280;64176;49.156;7.810;2023-05-10T09:53:09;98854.53;;;13.95;77.54
75594;BME280;64176;49.156;7.810;2023-05-10T09:55:53;98861.44;;;13.98;77.99
75594;BME280;64176;49.156;7.810;2023-05-10T09:58:37;98866.66;;;13.95;79.00
75594;BME280;64176;49.156;7.810;2023-05-10T10:01:26;98879.97;;;13.70;81.63
75594;BME280;64176;49.156;7.810;2023-05-10T10:04:10;98888.88;;;13.51;81.82
75594;BME280;64176;49.156;7.810;2023-05-10T10:07:13;98895.19;;;13.30;80.52
75594;BME280;64176;49.156;7.810;2023-05-10T10:09:58;98884.50;;;13.58;82.02
75594;BME280;64176;49.156;7.810;2023-05-10T10:12:45;98894.28;;;13.36;80.46
75594;BME280;64176;49.156;7.810;2023-05-10T10:15:29;98890.72;;;13.43;79.79
75594;BME280;64176;49.156;7.810;2023-05-10T10:18:13;98884.66;;;13.45;79.25
75594;BME280;64176;49.156;7.810;2023-05-10T10:21:01;98891.59;;;13.43;78.08
75594;BME280;64176;49.156;7.810;2023-05-10T10:23:46;98873.19;;;13.59;77.20
75594;BME280;64176;49.156;7.810;2023-05-10T10:26:30;98886.28;;;13.53;76.43
75594;BME280;64176;49.156;7.810;2023-05-10T10:29:20;98885.53;;;13.41;74.16
75594;BME280;64176;49.156;7.810;2023-05-10T10:35:08;98877.25;;;13.81;73.16
75594;BME280;64176;49.156;7.810;2023-05-10T10:37:53;98884.38;;;13.65;71.79
75594;BME280;64176;49.156;7.810;2023-05-10T10:40:37;98889.44;;;13.77;73.28
75594;BME280;64176;49.156;7.810;2023-05-10T10:49:09;98888.09;;;14.10;69.75
75594;BME280;64176;49.156;7.810;2023-05-10T10:52:25;98888.72;;;14.26;68.42
75594;BME280;64176;49.156;7.810;2023-05-10T10:55:19;98889.41;;;14.40;68.52
75594;BME280;64176;49.156;7.810;2023-05-10T10:58:07;98888.41;;;14.47;68.27
75594;BME280;64176;49.156;7.810;2023-05-10T11:01:15;98885.09;;;14.36;65.12
75594;BME280;64176;49.156;7.810;2023-05-10T11:06:46;98897.16;;;14.43;64.80
75594;BME280;64176;49.156;7.810;2023-05-10T11:09:39;98906.72;;;14.40;65.81
75594;BME280;64176;49.156;7.810;2023-05-10T11:12:23;98904.22;;;14.32;65.22
75594;BME280;64176;49.156;7.810;2023-05-10T11:15:09;98899.91;;;14.33;65.21
75594;BME280;64176;49.156;7.810;2023-05-10T11:17:53;98903.38;;;14.30;64.41
75594;BME280;64176;49.156;7.810;2023-05-10T11:20:39;98882.75;;;14.21;63.78
75594;BME280;64176;49.156;7.810;2023-05-10T11:23:23;98888.69;;;14.28;62.43
75594;BME280;64176;49.156;7.810;2023-05-10T11:26:07;98895.56;;;14.33;62.37
75594;BME280;64176;49.156;7.810;2023-05-10T11:28:55;98904.38;;;14.21;60.15
75594;BME280;64176;49.156;7.810;2023-05-10T11:31:46;98898.94;;;14.37;63.20
75594;BME280;64176;49.156;7.810;2023-05-10T11:34:31;98909.47;;;14.29;63.55
75594;BME280;64176;49.156;7.810;2023-05-10T11:37:17;98911.84;;;14.46;62.89
75594;BME280;64176;49.156;7.810;2023-05-10T11:40:02;98918.44;;;14.67;63.31
75594;BME280;64176;49.156;7.810;2023-05-10T11:42:47;98899.81;;;14.91;62.07
75594;BME280;64176;49.156;7.810;2023-05-10T11:45:32;98913.84;;;14.81;61.04
75594;BME280;64176;49.156;7.810;2023-05-10T11:48:16;98908.72;;;14.78;59.36
75594;BME280;64176;49.156;7.810;2023-05-10T11:51:07;98912.16;;;14.80;59.48
75594;BME280;64176;49.156;7.810;2023-05-10T11:53:55;98919.06;;;14.81;58.61
75594;BME280;64176;49.156;7.810;2023-05-10T11:56:40;98911.50;;;14.67;58.62
75594;BME280;64176;49.156;7.810;2023-05-10T11:59:24;98911.31;;;14.79;58.55
75594;BME280;64176;49.156;7.810;2023-05-10T12:02:10;98915.69;;;14.76;56.98
75594;BME280;64176;49.156;7.810;2023-05-10T12:04:55;98919.19;;;15.22;58.84
75594;BME280;64176;49.156;7.810;2023-05-10T12:07:44;98908.84;;;15.19;55.50
75594;BME280;64176;49.156;7.810;2023-05-10T12:10:28;98908.00;;;15.63;56.58
75594;BME280;64176;49.156;7.810;2023-05-10T12:13:13;98908.94;;;15.59;52.36
75594;BME280;64176;49.156;7.810;2023-05-10T12:15:58;98906.50;;;15.50;53.06
75594;BME280;64176;49.156;7.810;2023-05-10T12:18:48;98908.59;;;15.78;53.85
75594;BME280;64176;49.156;7.810;2023-05-10T12:21:35;98888.22;;;15.53;53.59
75594;BME280;64176;49.156;7.810;2023-05-10T12:24:21;98907.28;;;15.11;55.21
75594;BME280;64176;49.156;7.810;2023-05-10T12:27:05;98900.16;;;15.19;56.07
75594;BME280;64176;49.156;7.810;2023-05-10T12:29:51;98912.06;;;14.84;57.17
75594;BME280;64176;49.156;7.810;2023-05-10T12:32:41;98900.78;;;14.85;58.37
75594;BME280;64176;49.156;7.810;2023-05-10T12:35:25;98895.59;;;15.32;56.76
75594;BME280;64176;49.156;7.810;2023-05-10T12:38:43;98895.84;;;15.18;58.03
75594;BME280;64176;49.156;7.810;2023-05-10T12:41:28;98909.78;;;15.14;56.54
75594;BME280;64176;49.156;7.810;2023-05-10T12:44:12;98901.44;;;15.43;56.55
75594;BME280;64176;49.156;7.810;2023-05-10T12:46:56;98900.09;;;15.68;56.28
75594;BME280;64176;49.156;7.810;2023-05-10T12:49:43;98894.72;;;15.31;56.77
75594;BME280;64176;49.156;7.810;2023-05-10T12:52:28;98881.97;;;15.62;55.82
75594;BME280;64176;49.156;7.810;2023-05-10T12:55:12;98895.16;;;15.54;55.55
75594;BME280;64176;49.156;7.810;2023-05-10T12:57:56;98895.81;;;15.65;54.65
75594;BME280;64176;49.156;7.810;2023-05-10T13:00:40;98881.94;;;16.03;55.02
75594;BME280;64176;49.156;7.810;2023-05-10T13:03:27;98881.03;;;16.05;54.18
75594;BME280;64176;49.156;7.810;2023-05-10T13:06:11;98890.81;;;15.95;53.03
75594;BME280;64176;49.156;7.810;2023-05-10T13:08:57;98879.41;;;16.00;53.87
75594;BME280;64176;49.156;7.810;2023-05-10T13:11:41;98877.06;;;16.25;53.16
75594;BME280;64176;49.156;7.810;2023-05-10T13:14:29;98856.69;;;16.06;52.30
75594;BME280;64176;49.156;7.810;2023-05-10T13:17:14;98870.97;;;16.63;52.57
75594;BME280;64176;49.156;7.810;2023-05-10T13:19:58;98849.44;;;16.54;52.51
75594;BME280;64176;49.156;7.810;2023-05-10T13:22:43;98864.00;;;16.98;51.29
75594;BME280;64176;49.156;7.810;2023-05-10T13:25:27;98863.06;;;17.00;49.69
75594;BME280;64176;49.156;7.810;2023-05-10T13:28:11;98842.56;;;16.85;51.14
75594;BME280;64176;49.156;7.810;2023-05-10T13:30:55;98857.34;;;16.86;51.09
75594;BME280;64176;49.156;7.810;2023-05-10T13:33:39;98860.88;;;16.48;52.15
75594;BME280;64176;49.156;7.810;2023-05-10T13:36:23;98856.22;;;16.61;51.68
75594;BME280;64176;49.156;7.810;2023-05-10T13:39:07;98852.44;;;16.38;50.69
75594;BME280;64176;49.156;7.810;2023-05-10T13:41:54;98856.09;;;17.01;50.84
75594;BME280;64176;49.156;7.810;2023-05-10T13:44:38;98857.41;;;17.16;51.50
75594;BME280;64176;49.156;7.810;2023-05-10T13:47:22;98859.16;;;16.83;49.75
75594;BME280;64176;49.156;7.810;2023-05-10T13:50:06;98831.56;;;16.38;50.60
75594;BME280;64176;49.156;7.810;2023-05-10T13:52:53;98858.63;;;16.34;50.80
75594;BME280;64176;49.156;7.810;2023-05-10T13:55:38;98846.81;;;16.20;50.22
75594;BME280;64176;49.156;7.810;2023-05-10T13:58:22;98840.69;;;16.21;50.62
75594;BME280;64176;49.156;7.810;2023-05-10T14:01:07;98836.00;;;16.70;50.99
75594;BME280;64176;49.156;7.810;2023-05-10T14:03:51;98834.28;;;17.02;50.91
75594;BME280;64176;49.156;7.810;2023-05-10T14:06:37;98838.19;;;16.87;50.21
75594;BME280;64176;49.156;7.810;2023-05-10T14:09:21;98831.56;;;16.38;50.99
75594;BME280;64176;49.156;7.810;2023-05-10T14:12:05;98830.28;;;16.21;51.02
75594;BME280;64176;49.156;7.810;2023-05-10T14:14:49;98830.47;;;16.47;52.29
75594;BME280;64176;49.156;7.810;2023-05-10T14:17:38;98837.41;;;16.13;52.24
75594;BME280;64176;49.156;7.810;2023-05-10T14:20:22;98827.53;;;16.25;52.13
75594;BME280;64176;49.156;7.810;2023-05-10T14:23:06;98834.75;;;16.50;51.86
75594;BME280;64176;49.156;7.810;2023-05-10T14:25:51;98829.03;;;16.35;52.34
75594;BME280;64176;49.156;7.810;2023-05-10T14:28:36;98819.63;;;16.65;51.35
75594;BME280;64176;49.156;7.810;2023-05-10T14:31:19;98823.94;;;16.66;51.61
75594;BME280;64176;49.156;7.810;2023-05-10T14:34:09;98816.78;;;17.05;52.19
75594;BME280;64176;49.156;7.810;2023-05-10T14:36:56;98821.16;;;17.05;51.54
75594;BME280;64176;49.156;7.810;2023-05-10T14:39:40;98822.63;;;17.14;51.34
75594;BME280;64176;49.156;7.810;2023-05-10T14:42:25;98819.44;;;17.04;52.47
75594;BME280;64176;49.156;7.810;2023-05-10T14:45:10;98816.28;;;16.57;51.26
75594;BME280;64176;49.156;7.810;2023-05-10T14:47:54;98819.91;;;16.53;52.10
75594;BME280;64176;49.156;7.810;2023-05-10T14:50:38;98831.31;;;16.48;52.03
75594;BME280;64176;49.156;7.810;2023-05-10T14:53:23;98821.09;;;16.76;51.35
75594;BME280;64176;49.156;7.810;2023-05-10T14:56:07;98831.16;;;16.55;50.74
75594;BME280;64176;49.156;7.810;2023-05-10T14:58:51;98828.56;;;16.89;50.28
75594;BME280;64176;49.156;7.810;2023-05-10T15:01:35;98831.31;;;16.83;50.95
75594;BME280;64176;49.156;7.810;2023-05-10T15:04:21;98836.28;;;16.58;51.72
75594;BME280;64176;49.156;7.810;2023-05-10T15:07:05;98828.38;;;16.63;52.38